createdAt,value
2019-05-18T00:02:01.396Z,2.40
2019-05-18T00:04:37.512Z,2.63
2019-05-18T00:07:43.719Z,2.50
2019-05-18T00:11:20.167Z,3.43
2019-05-18T00:38:05.172Z,2.10
2019-05-18T00:41:01.408Z,2.20
2019-05-18T00:43:54.566Z,2.37
2019-05-18T01:14:15.147Z,1.47
2019-05-18T01:30:50.347Z,1.33
2019-05-18T01:44:28.346Z,1.30
2019-05-18T02:02:20.764Z,1.40
2019-05-18T02:02:49.956Z,1.53
2019-05-18T03:10:57.914Z,1.00
2019-05-18T04:09:07.196Z,0.90
2019-05-18T04:25:12.218Z,1.20
2019-05-18T04:27:52.558Z,0.90
2019-05-18T04:39:27.506Z,0.80
2019-05-18T04:43:22.474Z,0.90
2019-05-18T04:46:25.589Z,0.90
2019-05-18T04:52:35.526Z,1.13
2019-05-18T05:01:52.597Z,1.00
2019-05-18T05:14:10.495Z,1.33
2019-05-18T05:17:32.296Z,1.40
2019-05-18T05:28:34.200Z,1.33
2019-05-18T05:43:06.376Z,0.97
2019-05-18T07:33:56.966Z,3.50
2019-05-18T07:42:13.811Z,2.77
2019-05-18T07:45:29.798Z,2.57
2019-05-18T07:51:07.595Z,2.87
2019-05-18T07:53:50.097Z,2.37
2019-05-18T07:56:30.170Z,2.67
2019-05-18T07:59:25.692Z,2.50
2019-05-18T08:05:52.742Z,2.57
2019-05-18T08:11:14.879Z,2.57
2019-05-18T08:51:38.106Z,2.73
2019-05-18T09:16:50.279Z,2.20
2019-05-18T09:23:12.483Z,2.90
2019-05-18T09:26:15.966Z,2.43
2019-05-18T09:29:06.172Z,2.70
2019-05-18T09:38:54.955Z,2.23
2019-05-18T09:41:45.903Z,2.60
2019-05-18T09:44:44.803Z,1.93
2019-05-18T09:54:00.065Z,2.37
2019-05-18T09:58:19.661Z,2.17
2019-05-18T09:59:45.871Z,2.93
2019-05-18T10:08:06.829Z,4.27
2019-05-18T10:09:39.556Z,2.30
2019-05-18T10:10:49.435Z,2.63
2019-05-18T10:13:35.011Z,2.20
2019-05-18T10:16:20.537Z,2.60
2019-05-18T10:22:29.021Z,1.87
2019-05-18T10:28:39.413Z,2.30
2019-05-18T10:31:39.566Z,2.17
2019-05-18T10:36:55.747Z,2.47
2019-05-18T10:39:28.650Z,4.47
2019-05-18T10:46:32.660Z,2.10
2019-05-18T10:52:24.221Z,1.50
2019-05-18T10:57:38.087Z,3.90
2019-05-18T11:00:23.778Z,7.13
2019-05-18T11:02:57.092Z,4.40
2019-05-18T11:05:35.663Z,3.50
2019-05-18T11:08:11.103Z,8.50
2019-05-18T11:10:53.822Z,4.73
2019-05-18T11:16:21.527Z,2.17
2019-05-18T11:18:52.848Z,1.43
2019-05-18T11:21:30.945Z,1.87
2019-05-18T11:24:06.313Z,2.70
2019-05-18T11:26:39.817Z,2.10
2019-05-18T11:29:12.529Z,3.40
2019-05-18T11:31:45.491Z,1.47
2019-05-18T11:34:21.256Z,1.73
2019-05-18T11:36:53.826Z,1.73
2019-05-18T11:39:26.670Z,1.60
2019-05-18T11:41:59.218Z,2.00
2019-05-18T11:44:31.962Z,1.30
2019-05-18T11:47:04.752Z,1.40
2019-05-18T11:49:37.561Z,1.73
2019-05-18T11:52:10.433Z,1.47
2019-05-18T11:54:43.515Z,1.17
2019-05-18T11:57:16.244Z,1.23
2019-05-18T11:59:49.377Z,1.17
2019-05-18T12:02:23.357Z,1.00
2019-05-18T12:04:57.191Z,2.27
2019-05-18T12:07:29.945Z,1.60
2019-05-18T12:10:03.090Z,1.83
2019-05-18T12:12:36.111Z,1.60
2019-05-18T12:15:10.110Z,1.80
2019-05-18T12:17:42.763Z,1.50
2019-05-18T12:20:23.251Z,1.63
2019-05-18T12:22:54.451Z,2.20
2019-05-18T12:25:27.657Z,1.20
2019-05-18T12:28:00.339Z,1.70
2019-05-18T12:30:33.251Z,1.67
2019-05-18T12:33:05.976Z,1.60
2019-05-18T12:35:38.954Z,1.17
2019-05-18T12:38:11.962Z,1.00
2019-05-18T12:40:44.630Z,1.37
2019-05-18T12:43:17.424Z,1.53
2019-05-18T12:45:50.146Z,1.30
2019-05-18T12:48:23.763Z,1.50
2019-05-18T12:50:59.512Z,1.00
2019-05-18T12:53:32.478Z,1.07
2019-05-18T12:56:06.046Z,2.03
2019-05-18T12:58:38.717Z,1.73
2019-05-18T13:01:11.570Z,1.30
2019-05-18T13:03:44.437Z,1.37
2019-05-18T13:06:17.486Z,1.43
2019-05-18T13:08:50.916Z,1.47
2019-05-18T13:11:24.354Z,1.30
2019-05-18T13:13:57.041Z,1.40
2019-05-18T13:16:30.218Z,1.30
2019-05-18T13:19:03.031Z,1.37
2019-05-18T13:21:35.807Z,1.13
2019-05-18T13:24:08.410Z,1.30
2019-05-18T13:26:40.834Z,1.50
2019-05-18T13:29:13.573Z,1.13
2019-05-18T13:31:47.299Z,1.20
2019-05-18T13:34:20.375Z,1.50
2019-05-18T13:36:53.336Z,1.30
2019-05-18T13:39:26.700Z,1.33
2019-05-18T13:41:59.626Z,0.90
2019-05-18T13:44:32.990Z,1.20
2019-05-18T13:47:05.892Z,1.30
2019-05-18T13:49:38.955Z,1.30
2019-05-18T13:52:11.755Z,1.20
2019-05-18T13:55:01.201Z,1.60
2019-05-18T13:57:18.870Z,1.23
2019-05-18T13:59:52.005Z,1.47
2019-05-18T14:02:25.018Z,0.90
2019-05-18T14:04:58.068Z,1.50
2019-05-18T14:07:30.904Z,1.00
2019-05-18T14:10:03.843Z,1.30
2019-05-18T14:12:36.791Z,1.03
2019-05-18T14:15:10.463Z,1.10
2019-05-18T14:17:43.520Z,1.37
2019-05-18T14:20:16.664Z,1.27
2019-05-18T14:22:49.460Z,1.37
2019-05-18T14:25:22.954Z,1.47
2019-05-18T14:27:55.917Z,1.97
2019-05-18T14:30:28.899Z,1.73
2019-05-18T14:33:01.864Z,1.20
2019-05-18T14:35:34.703Z,1.83
2019-05-18T14:38:07.469Z,1.13
2019-05-18T14:40:40.180Z,0.80
2019-05-18T14:43:12.847Z,1.00
2019-05-18T14:45:48.785Z,1.10
2019-05-18T14:48:20.350Z,1.00
2019-05-18T14:50:53.590Z,1.33
2019-05-18T14:53:26.281Z,1.53
2019-05-18T14:56:00.020Z,1.10
2019-05-18T14:58:32.871Z,1.33
2019-05-18T15:01:05.923Z,1.03
2019-05-18T15:03:39.154Z,1.57
2019-05-18T15:06:13.507Z,1.30
2019-05-18T15:08:46.315Z,1.27
2019-05-18T15:11:19.540Z,1.33
2019-05-18T15:13:52.368Z,1.20
2019-05-18T15:16:25.670Z,1.00
2019-05-18T15:18:58.646Z,1.40
2019-05-18T15:21:31.903Z,1.20
2019-05-18T15:24:04.872Z,1.47
2019-05-18T15:26:37.882Z,1.60
2019-05-18T15:29:10.903Z,1.23
2019-05-18T15:31:43.834Z,1.47
2019-05-18T15:34:16.885Z,3.10
2019-05-18T15:36:50.177Z,2.07
2019-05-18T15:39:23.955Z,1.40
2019-05-18T15:41:56.864Z,1.17
2019-05-18T15:44:30.054Z,1.10
2019-05-18T15:47:03.151Z,1.50
2019-05-18T15:49:35.924Z,1.60
2019-05-18T15:52:09.331Z,1.10
2019-05-18T15:54:42.103Z,3.23
2019-05-18T15:57:15.068Z,1.20
2019-05-18T15:59:47.858Z,1.10
2019-05-18T16:02:20.966Z,0.90
2019-05-18T16:04:53.945Z,0.97
2019-05-18T16:07:27.227Z,1.00
2019-05-18T16:10:00.169Z,1.30
2019-05-18T16:12:33.014Z,1.30
2019-05-18T16:15:05.925Z,0.93
2019-05-18T16:17:40.155Z,0.87
2019-05-18T16:20:13.027Z,1.43
2019-05-18T16:22:45.678Z,1.30
2019-05-18T16:25:18.611Z,1.10
2019-05-18T16:27:51.355Z,1.50
2019-05-18T16:30:24.787Z,1.30
2019-05-18T16:32:57.907Z,1.00
2019-05-18T16:35:30.941Z,1.30
2019-05-18T16:38:03.973Z,1.53
2019-05-18T16:40:37.010Z,1.33
2019-05-18T16:43:10.050Z,1.70
2019-05-18T16:45:43.001Z,1.20
2019-05-18T16:48:16.073Z,1.73
2019-05-18T16:50:49.579Z,1.33
2019-05-18T16:53:22.575Z,1.30
2019-05-18T16:55:56.601Z,1.37
2019-05-18T16:58:29.592Z,1.60
2019-05-18T17:01:05.105Z,1.37
2019-05-18T17:03:36.726Z,1.70
2019-05-18T17:06:10.031Z,1.33
2019-05-18T17:08:43.063Z,1.53
2019-05-18T17:11:18.149Z,1.20
2019-05-18T17:13:51.167Z,1.10
2019-05-18T17:16:24.403Z,1.17
2019-05-18T17:18:58.048Z,1.13
2019-05-18T17:21:31.243Z,1.00
2019-05-18T17:24:04.534Z,0.97
2019-05-18T17:26:51.503Z,0.90
2019-05-18T17:29:12.247Z,1.10
2019-05-18T17:31:45.185Z,1.30
2019-05-18T17:34:18.673Z,0.97
2019-05-18T17:36:52.641Z,1.20
2019-05-18T17:39:26.957Z,0.93
2019-05-18T17:41:59.956Z,1.00
2019-05-18T17:44:33.315Z,0.90
2019-05-18T17:47:07.249Z,0.90
2019-05-18T17:49:40.221Z,1.17
2019-05-18T17:52:13.019Z,0.90
2019-05-18T17:54:46.444Z,2.10
2019-05-18T17:57:19.366Z,1.20
2019-05-18T17:59:52.538Z,1.40
2019-05-18T18:02:25.700Z,1.30
2019-05-18T18:04:59.758Z,1.23
2019-05-18T18:07:32.674Z,1.63
2019-05-18T18:10:06.085Z,1.90
2019-05-18T18:12:38.954Z,1.80
2019-05-18T18:15:13.204Z,1.40
2019-05-18T18:17:46.572Z,1.90
2019-05-18T18:20:20.931Z,1.60
2019-05-18T18:22:53.732Z,1.87
2019-05-18T18:25:26.927Z,1.60
2019-05-18T18:28:00.228Z,2.53
2019-05-18T18:30:33.645Z,2.60
2019-05-18T18:33:06.848Z,1.80
2019-05-18T18:35:40.886Z,1.57
2019-05-18T18:38:13.761Z,1.67
2019-05-18T18:40:47.057Z,1.67
2019-05-18T18:43:20.510Z,1.63
2019-05-18T18:45:54.071Z,1.60
2019-05-18T18:48:27.024Z,1.97
2019-05-18T18:51:00.225Z,2.07
2019-05-18T18:53:33.138Z,1.83
2019-05-18T18:56:07.991Z,2.00
2019-05-18T18:58:41.391Z,1.57
2019-05-18T19:01:14.684Z,1.57
2019-05-18T19:03:47.574Z,2.47
2019-05-18T19:06:20.476Z,2.27
2019-05-18T19:08:52.994Z,2.20
2019-05-18T19:11:25.891Z,2.30
2019-05-18T19:13:59.479Z,2.53
2019-05-18T19:16:32.015Z,1.57
2019-05-18T19:19:04.683Z,2.00
2019-05-18T19:21:37.922Z,3.00
2019-05-18T19:24:10.629Z,2.83
2019-05-18T19:26:43.875Z,2.10
2019-05-18T19:29:16.746Z,3.33
2019-05-18T19:31:49.059Z,2.73
2019-05-18T19:34:21.692Z,4.23
2019-05-18T19:36:54.251Z,2.63
2019-05-18T19:39:27.018Z,2.30
2019-05-18T19:41:59.604Z,3.03
2019-05-18T19:47:53.134Z,3.20
2019-05-18T19:53:34.581Z,2.57
2019-05-18T19:56:08.613Z,3.13
2019-05-18T19:58:44.334Z,2.27
2019-05-18T20:01:17.108Z,2.13
2019-05-18T20:03:50.203Z,2.40
2019-05-18T20:06:23.325Z,2.43
2019-05-18T20:08:56.069Z,2.87
2019-05-18T20:11:31.107Z,3.90
2019-05-18T20:14:03.819Z,3.07
2019-05-18T20:16:37.395Z,2.40
2019-05-18T20:19:12.049Z,3.23
2019-05-18T20:21:47.905Z,3.30
2019-05-18T20:24:28.120Z,2.50
2019-05-18T20:27:51.118Z,3.67
2019-05-18T20:30:30.503Z,2.50
2019-05-18T20:33:13.361Z,2.90
2019-05-18T20:36:04.716Z,3.00
2019-05-18T20:38:52.523Z,2.33
2019-05-18T20:41:36.576Z,2.77
2019-05-18T20:44:31.970Z,2.57
2019-05-18T20:47:19.518Z,3.20
2019-05-18T20:50:21.910Z,3.23
2019-05-18T20:59:01.736Z,2.47
2019-05-18T21:11:08.676Z,3.30
2019-05-18T21:14:31.254Z,2.83
2019-05-18T21:17:06.582Z,2.87
2019-05-18T21:26:03.822Z,2.60
2019-05-18T21:29:29.848Z,2.97
2019-05-18T21:39:27.886Z,3.50
2019-05-18T21:50:57.157Z,2.40
2019-05-18T21:57:11.146Z,3.37
2019-05-18T22:05:56.701Z,3.20
2019-05-18T22:08:40.541Z,2.47
2019-05-18T22:14:50.683Z,1.83
2019-05-18T22:26:45.877Z,2.70
2019-05-18T22:29:31.462Z,2.90
2019-05-18T22:32:17.737Z,2.60
2019-05-18T22:35:20.446Z,2.77
2019-05-18T22:37:38.505Z,2.50
2019-05-18T22:40:14.564Z,2.97
2019-05-18T22:42:47.194Z,1.97
2019-05-18T22:45:37.839Z,3.67
2019-05-18T22:48:40.752Z,3.30
2019-05-18T22:51:09.082Z,2.50
2019-05-18T22:53:42.068Z,2.83
2019-05-18T22:56:46.199Z,2.57
2019-05-18T22:59:20.793Z,2.30
2019-05-18T23:01:53.127Z,2.60
2019-05-18T23:04:28.553Z,2.20
2019-05-18T23:07:21.883Z,2.77
2019-05-18T23:09:57.358Z,2.23
2019-05-18T23:12:33.001Z,2.70
2019-05-18T23:15:04.583Z,3.93
2019-05-18T23:17:37.798Z,2.60
2019-05-18T23:20:17.064Z,2.27
2019-05-18T23:22:50.072Z,2.90
2019-05-18T23:25:23.496Z,3.07
2019-05-18T23:30:59.087Z,2.80
2019-05-18T23:33:32.126Z,3.10
2019-05-18T23:36:58.312Z,2.60
2019-05-18T23:39:31.948Z,1.83
2019-05-18T23:42:11.805Z,2.70
2019-05-18T23:45:00.589Z,2.27
2019-05-18T23:47:46.582Z,2.33
2019-05-18T23:50:25.953Z,2.90
2019-05-18T23:53:01.817Z,2.40
2019-05-18T23:55:56.366Z,2.20
